createdAt,value
2017-11-12T00:00:48.009Z,4.51
2017-11-12T00:01:47.991Z,4.63
2017-11-12T00:02:47.964Z,4.63
2017-11-12T00:03:47.945Z,4.52
2017-11-12T00:04:48.295Z,4.51
2017-11-12T00:05:47.906Z,4.52
2017-11-12T00:06:47.909Z,4.60
2017-11-12T00:07:47.895Z,4.54
2017-11-12T00:08:47.854Z,4.54
2017-11-12T00:09:47.840Z,4.52
2017-11-12T00:10:47.859Z,4.50
2017-11-12T00:11:47.804Z,4.54
2017-11-12T00:12:47.793Z,4.55
2017-11-12T00:13:47.778Z,4.51
2017-11-12T00:14:47.755Z,4.58
2017-11-12T00:15:47.940Z,4.60
2017-11-12T00:16:47.732Z,4.60
2017-11-12T00:17:47.690Z,4.59
2017-11-12T00:18:47.676Z,4.59
2017-11-12T00:19:47.663Z,4.63
2017-11-12T00:20:47.975Z,4.60
2017-11-12T00:21:47.614Z,4.55
2017-11-12T00:22:47.604Z,4.62
2017-11-12T00:23:47.578Z,4.59
2017-11-12T00:24:47.561Z,4.70
2017-11-12T00:25:47.545Z,4.70
2017-11-12T00:26:48.038Z,4.75
2017-11-12T00:27:47.528Z,4.67
2017-11-12T00:28:47.491Z,4.69
2017-11-12T00:29:47.487Z,4.58
2017-11-12T00:30:47.471Z,4.65
2017-11-12T00:31:47.442Z,4.55
2017-11-12T00:32:47.481Z,4.51
2017-11-12T00:33:47.393Z,4.67
2017-11-12T00:34:47.377Z,4.54
2017-11-12T00:35:47.361Z,4.69
2017-11-12T00:36:47.340Z,4.63
2017-11-12T00:37:47.321Z,4.65
2017-11-12T00:38:47.333Z,4.70
2017-11-12T00:39:47.288Z,4.73
2017-11-12T00:40:47.275Z,4.77
2017-11-12T00:41:47.297Z,4.75
2017-11-12T00:42:47.230Z,4.82
2017-11-12T00:43:47.207Z,4.77
2017-11-12T00:44:47.192Z,4.80
2017-11-12T00:45:47.172Z,4.78
2017-11-12T00:46:47.384Z,4.70
2017-11-12T00:47:47.160Z,4.73
2017-11-12T00:48:47.136Z,4.84
2017-11-12T00:49:47.102Z,4.75
2017-11-12T00:50:47.080Z,4.77
2017-11-12T00:51:47.065Z,4.82
2017-11-12T00:52:47.082Z,4.80
2017-11-12T00:53:47.033Z,4.72
2017-11-12T00:54:47.011Z,4.80
2017-11-12T00:55:47.067Z,4.84
2017-11-12T00:56:46.969Z,4.85
2017-11-12T00:57:46.954Z,4.85
2017-11-12T00:58:46.932Z,4.78
2017-11-12T00:59:46.920Z,4.84
2017-11-12T01:00:46.899Z,4.82
2017-11-12T01:01:46.924Z,4.86
2017-11-12T01:02:46.869Z,4.80
2017-11-12T01:03:46.844Z,4.82
2017-11-12T01:04:46.827Z,4.78
2017-11-12T01:05:46.809Z,4.86
2017-11-12T01:06:46.787Z,4.84
2017-11-12T01:07:46.980Z,4.73
2017-11-12T01:08:47.408Z,4.82
2017-11-12T01:09:46.732Z,4.84
2017-11-12T01:10:46.719Z,4.78
2017-11-12T01:11:46.700Z,4.85
2017-11-12T01:12:46.680Z,4.78
2017-11-12T01:13:46.715Z,4.86
2017-11-12T01:14:46.658Z,4.72
2017-11-12T01:15:46.624Z,4.73
2017-11-12T01:16:46.608Z,4.77
2017-11-12T01:17:46.591Z,4.63
2017-11-12T01:18:46.570Z,4.67
2017-11-12T01:19:46.619Z,4.69
2017-11-12T01:20:46.537Z,4.73
2017-11-12T01:21:46.524Z,4.72
2017-11-12T01:22:46.858Z,4.63
2017-11-12T01:23:46.475Z,4.75
2017-11-12T01:24:46.453Z,4.59
2017-11-12T01:25:46.438Z,4.70
2017-11-12T01:26:46.423Z,4.65
2017-11-12T01:27:46.407Z,4.63
2017-11-12T01:28:46.565Z,4.70
2017-11-12T01:29:46.373Z,4.75
2017-11-12T01:30:46.346Z,4.70
2017-11-12T01:31:46.335Z,4.65
2017-11-12T01:32:46.318Z,4.73
2017-11-12T01:33:46.327Z,4.69
2017-11-12T01:34:46.333Z,4.77
2017-11-12T01:35:46.252Z,4.63
2017-11-12T01:36:46.246Z,4.52
2017-11-12T01:37:46.358Z,4.72
2017-11-12T01:38:46.198Z,4.52
2017-11-12T01:39:46.184Z,4.59
2017-11-12T01:40:46.164Z,4.50
2017-11-12T01:41:46.143Z,4.51
2017-11-12T01:42:46.135Z,4.55
2017-11-12T01:43:46.140Z,4.51
2017-11-12T01:44:46.088Z,4.55
2017-11-12T01:45:46.070Z,4.60
2017-11-12T01:46:46.416Z,4.60
2017-11-12T01:47:46.031Z,4.55
2017-11-12T01:48:46.035Z,4.59
2017-11-12T01:49:45.993Z,4.59
2017-11-12T01:50:45.975Z,4.50
2017-11-12T01:51:45.961Z,4.59
2017-11-12T01:52:46.079Z,4.59
2017-11-12T01:53:45.922Z,4.51
2017-11-12T01:54:45.900Z,4.59
2017-11-12T01:55:45.884Z,4.62
2017-11-12T01:56:45.870Z,4.67
2017-11-12T01:57:45.848Z,4.52
2017-11-12T01:58:45.873Z,4.50
2017-11-12T01:59:45.811Z,4.48
2017-11-12T02:00:45.801Z,4.63
2017-11-12T02:01:45.776Z,4.58
2017-11-12T02:02:45.755Z,4.50
2017-11-12T02:03:45.730Z,4.54
2017-11-12T02:04:45.748Z,4.63
2017-11-12T02:05:45.704Z,4.51
2017-11-12T02:06:45.686Z,4.66
2017-11-12T02:07:45.661Z,4.54
2017-11-12T02:08:45.712Z,4.52
2017-11-12T02:09:45.626Z,4.59
2017-11-12T02:10:45.610Z,4.55
2017-11-12T02:11:45.593Z,4.52
2017-11-12T02:12:45.578Z,4.59
2017-11-12T02:13:45.573Z,4.59
2017-11-12T02:14:45.698Z,4.52
2017-11-12T02:15:45.511Z,4.54
2017-11-12T02:16:45.506Z,4.55
2017-11-12T02:17:45.477Z,4.59
2017-11-12T02:18:45.459Z,4.51
2017-11-12T02:19:45.438Z,4.47
2017-11-12T02:20:45.557Z,4.42
2017-11-12T02:21:45.411Z,4.41
2017-11-12T02:22:45.386Z,4.41
2017-11-12T02:23:45.369Z,4.42
2017-11-12T02:24:45.348Z,4.36
2017-11-12T02:25:45.349Z,4.37
2017-11-12T02:26:45.391Z,4.41
2017-11-12T02:27:45.294Z,4.41
2017-11-12T02:28:45.297Z,4.33
2017-11-12T02:29:45.253Z,4.36
2017-11-12T02:30:45.236Z,4.40
2017-11-12T02:31:45.220Z,4.27
2017-11-12T02:32:45.269Z,4.30
2017-11-12T02:33:45.178Z,4.15
2017-11-12T02:34:45.168Z,4.29
2017-11-12T02:35:45.142Z,4.29
2017-11-12T02:36:45.123Z,4.29
2017-11-12T02:37:45.116Z,4.32
2017-11-12T02:38:45.159Z,4.29
2017-11-12T02:39:45.080Z,4.14
2017-11-12T02:40:45.061Z,4.18
2017-11-12T02:41:45.035Z,4.20
2017-11-12T02:42:45.029Z,4.12
2017-11-12T02:43:45.003Z,4.09
2017-11-12T02:44:45.564Z,4.20
2017-11-12T02:45:44.961Z,4.20
2017-11-12T02:46:44.958Z,4.18
2017-11-12T02:47:44.926Z,4.27
2017-11-12T02:48:44.914Z,4.29
2017-11-12T02:49:44.888Z,4.29
2017-11-12T02:50:45.259Z,4.26
2017-11-12T02:51:44.857Z,4.29
2017-11-12T02:52:44.836Z,4.34
2017-11-12T02:53:44.825Z,4.32
2017-11-12T02:54:44.793Z,4.29
2017-11-12T02:55:44.795Z,4.36
2017-11-12T02:56:44.924Z,4.32
2017-11-12T02:57:44.743Z,4.36
2017-11-12T02:58:44.734Z,4.37
2017-11-12T02:59:44.699Z,4.37
2017-11-12T03:00:44.697Z,4.34
2017-11-12T03:01:44.675Z,4.34
2017-11-12T03:02:44.782Z,4.45
2017-11-12T03:03:44.632Z,4.48
2017-11-12T03:04:44.633Z,4.40
2017-11-12T03:05:44.609Z,4.45
2017-11-12T03:06:44.591Z,4.44
2017-11-12T03:07:44.554Z,4.47
2017-11-12T03:08:44.901Z,4.55
2017-11-12T03:10:05.524Z,4.54
2017-11-12T03:10:44.514Z,4.50
2017-11-12T03:11:44.483Z,4.45
2017-11-12T03:12:44.470Z,4.41
2017-11-12T03:13:44.453Z,4.45
2017-11-12T03:14:44.476Z,4.44
2017-11-12T03:15:44.418Z,4.54
2017-11-12T03:16:44.412Z,4.47
2017-11-12T03:17:44.384Z,4.55
2017-11-12T03:18:44.388Z,4.52
2017-11-12T03:19:44.341Z,4.59
2017-11-12T03:20:44.321Z,4.58
2017-11-12T03:21:44.297Z,4.45
2017-11-12T03:22:44.284Z,4.48
2017-11-12T03:23:44.295Z,4.48
2017-11-12T03:24:44.243Z,4.50
2017-11-12T03:25:44.296Z,4.58
2017-11-12T03:26:44.216Z,4.58
2017-11-12T03:27:44.187Z,4.50
2017-11-12T03:28:44.180Z,4.48
2017-11-12T03:29:44.152Z,4.59
2017-11-12T03:30:44.137Z,4.59
2017-11-12T03:31:44.196Z,4.55
2017-11-12T03:32:44.117Z,4.60
2017-11-12T03:33:44.085Z,4.55
2017-11-12T03:34:44.064Z,4.60
2017-11-12T03:35:44.064Z,4.70
2017-11-12T03:36:44.034Z,4.60
2017-11-12T03:37:44.042Z,4.75
2017-11-12T03:38:43.989Z,4.77
2017-11-12T03:39:43.968Z,4.60
2017-11-12T03:40:43.955Z,4.67
2017-11-12T03:41:43.938Z,4.72
2017-11-12T03:42:44.309Z,4.77
2017-11-12T03:43:43.894Z,4.77
2017-11-12T03:44:43.874Z,4.62
2017-11-12T03:45:43.861Z,4.72
2017-11-12T03:46:43.850Z,4.77
2017-11-12T03:47:43.848Z,4.67
2017-11-12T03:48:44.060Z,4.75
2017-11-12T03:49:43.788Z,4.65
2017-11-12T03:50:43.774Z,4.72
2017-11-12T03:51:43.754Z,4.73
2017-11-12T03:52:43.738Z,4.75
2017-11-12T03:53:43.719Z,4.75
2017-11-12T03:54:43.760Z,4.70
2017-11-12T03:55:43.699Z,4.80
2017-11-12T03:56:43.661Z,4.77
2017-11-12T03:57:43.646Z,4.73
2017-11-12T03:58:43.627Z,4.75
2017-11-12T03:59:43.611Z,4.73
2017-11-12T04:00:43.652Z,4.77
2017-11-12T04:01:43.567Z,4.80
2017-11-12T04:02:43.547Z,4.73
2017-11-12T04:03:43.553Z,4.82
2017-11-12T04:04:43.528Z,4.88
2017-11-12T04:05:43.505Z,4.84
2017-11-12T04:06:43.924Z,4.78
2017-11-12T04:07:43.466Z,4.78
2017-11-12T04:08:43.453Z,4.75
2017-11-12T04:09:43.425Z,4.82
2017-11-12T04:10:43.405Z,4.82
2017-11-12T04:11:43.388Z,4.77
2017-11-12T04:12:43.440Z,4.85
2017-11-12T04:13:43.349Z,4.94
2017-11-12T04:14:43.330Z,4.89
2017-11-12T04:15:43.341Z,4.80
2017-11-12T04:16:43.295Z,4.80
2017-11-12T04:17:43.287Z,4.85
2017-11-12T04:18:43.396Z,4.85
2017-11-12T04:19:43.264Z,4.82
2017-11-12T04:20:43.227Z,4.88
2017-11-12T04:21:43.210Z,4.86
2017-11-12T04:22:43.185Z,4.91
2017-11-12T04:23:43.179Z,4.78
2017-11-12T04:24:43.212Z,4.89
2017-11-12T04:25:43.143Z,4.85
2017-11-12T04:26:43.116Z,4.84
2017-11-12T04:27:43.093Z,4.80
2017-11-12T04:28:43.084Z,4.78
2017-11-12T04:29:43.065Z,4.69
2017-11-12T04:30:43.417Z,4.63
2017-11-12T04:31:43.023Z,4.55
2017-11-12T04:32:43.023Z,4.63
2017-11-12T04:33:42.981Z,4.59
2017-11-12T04:34:42.965Z,4.51
2017-11-12T04:35:42.950Z,4.52
2017-11-12T04:36:43.001Z,4.51
2017-11-12T04:37:42.926Z,4.52
2017-11-12T04:38:42.893Z,4.51
2017-11-12T04:39:48.510Z,4.51
2017-11-12T04:40:43.688Z,4.55
2017-11-12T04:41:43.029Z,4.52
2017-11-12T04:42:44.531Z,4.52
2017-11-12T04:43:45.550Z,4.72
2017-11-12T04:44:44.567Z,4.67
2017-11-12T04:45:43.010Z,4.67
2017-11-12T04:46:42.982Z,4.77
2017-11-12T04:47:43.208Z,4.62
2017-11-12T04:48:44.517Z,4.67
2017-11-12T04:49:42.824Z,4.70
2017-11-12T04:50:42.852Z,4.67
2017-11-12T04:51:42.835Z,4.78
2017-11-12T04:52:42.729Z,4.77
2017-11-12T04:53:47.588Z,4.77
2017-11-12T04:54:43.643Z,4.72
2017-11-12T04:55:43.631Z,4.82
2017-11-12T04:56:42.680Z,4.73
2017-11-12T04:57:42.609Z,4.73
2017-11-12T04:58:42.698Z,4.67
2017-11-12T04:59:46.112Z,4.77
2017-11-12T05:00:42.651Z,4.73
2017-11-12T05:01:42.670Z,4.69
2017-11-12T05:02:42.617Z,4.78
2017-11-12T05:03:42.851Z,4.66
2017-11-12T05:04:42.772Z,4.66
2017-11-12T05:05:42.553Z,4.65
2017-11-12T05:06:47.189Z,4.51
2017-11-12T05:07:44.308Z,4.58
2017-11-12T05:08:43.112Z,4.59
2017-11-12T05:09:42.581Z,4.50
2017-11-12T05:10:42.632Z,4.59
2017-11-12T05:11:42.453Z,4.55
2017-11-12T05:13:03.588Z,4.69
2017-11-12T05:13:42.314Z,4.54
2017-11-12T05:14:44.240Z,4.52
2017-11-12T05:15:42.488Z,4.54
2017-11-12T05:16:42.381Z,4.55
2017-11-12T05:17:45.157Z,4.50
2017-11-12T05:18:42.360Z,4.54
2017-11-12T05:19:44.077Z,4.52
2017-11-12T05:20:43.051Z,4.55
2017-11-12T05:21:42.283Z,4.59
2017-11-12T05:22:43.031Z,4.55
2017-11-12T05:23:44.015Z,4.59
2017-11-12T05:24:42.386Z,4.55
2017-11-12T05:25:42.241Z,4.60
2017-11-12T05:26:42.187Z,4.60
2017-11-12T05:27:43.051Z,4.58
2017-11-12T05:28:43.091Z,4.52
2017-11-12T05:29:42.515Z,4.60
2017-11-12T05:30:42.131Z,4.66
2017-11-12T05:31:42.046Z,4.70
2017-11-12T05:32:42.160Z,4.65
2017-11-12T05:33:42.142Z,4.80
2017-11-12T05:34:42.049Z,4.72
2017-11-12T05:35:42.767Z,4.80
2017-11-12T05:36:42.052Z,4.75
2017-11-12T05:37:42.101Z,4.77
2017-11-12T05:38:42.594Z,4.77
2017-11-12T05:39:41.940Z,4.77
2017-11-12T05:40:41.975Z,4.75
2017-11-12T05:41:41.961Z,4.77
2017-11-12T05:42:41.878Z,4.73
2017-11-12T05:43:42.525Z,4.75
2017-11-12T05:44:44.196Z,4.84
2017-11-12T05:45:58.577Z,4.77
2017-11-12T05:46:42.547Z,4.86
2017-11-12T05:47:42.632Z,4.85
2017-11-12T05:48:44.569Z,4.86
2017-11-12T05:49:41.813Z,4.89
2017-11-12T05:50:42.575Z,4.85
2017-11-12T05:51:42.456Z,4.86
2017-11-12T05:52:42.455Z,4.91
2017-11-12T05:53:42.040Z,4.91
2017-11-12T05:54:42.551Z,4.88
2017-11-12T05:55:41.833Z,4.91
2017-11-12T05:56:41.623Z,4.84
2017-11-12T05:57:42.719Z,4.85
2017-11-12T05:58:43.519Z,4.91
2017-11-12T05:59:41.583Z,4.96
2017-11-12T06:00:41.690Z,4.94
2017-11-12T06:01:42.040Z,4.92
2017-11-12T06:02:41.480Z,4.96
2017-11-12T06:03:59.681Z,4.96
2017-11-12T06:04:41.517Z,4.96
2017-11-12T06:05:41.610Z,4.92
2017-11-12T06:06:43.032Z,4.96
2017-11-12T06:07:42.153Z,4.88
2017-11-12T06:08:41.441Z,4.97
2017-11-12T06:09:41.496Z,4.96
2017-11-12T06:10:42.169Z,5.00
2017-11-12T06:11:42.052Z,5.04
2017-11-12T06:12:52.011Z,4.86
2017-11-12T06:13:41.457Z,5.02
2017-11-12T06:14:43.284Z,4.92
2017-11-12T06:15:42.094Z,5.04
2017-11-12T06:16:41.324Z,5.03
2017-11-12T06:17:41.265Z,4.91
2017-11-12T06:18:41.210Z,4.99
2017-11-12T06:19:42.507Z,4.91
2017-11-12T06:20:41.184Z,5.00
2017-11-12T06:21:41.150Z,5.06
2017-11-12T06:22:41.177Z,5.00
2017-11-12T06:23:41.180Z,4.96
2017-11-12T06:24:46.136Z,5.04
2017-11-12T06:25:42.102Z,4.97
2017-11-12T06:26:48.039Z,5.06
2017-11-12T06:27:43.548Z,4.99
2017-11-12T06:28:41.138Z,5.04
2017-11-12T06:29:41.058Z,5.00
2017-11-12T06:30:42.685Z,5.02
2017-11-12T06:31:41.278Z,5.03
2017-11-12T06:32:55.535Z,5.04
2017-11-12T06:33:41.111Z,5.03
2017-11-12T06:34:41.101Z,4.94
2017-11-12T06:35:41.486Z,5.02
2017-11-12T06:36:40.917Z,5.06
2017-11-12T06:37:42.534Z,5.07
2017-11-12T06:38:40.903Z,4.99
2017-11-12T06:39:40.937Z,4.97
2017-11-12T06:40:40.912Z,4.99
2017-11-12T06:41:41.062Z,5.03
2017-11-12T06:42:40.855Z,5.03
2017-11-12T06:43:41.101Z,5.06
2017-11-12T06:44:41.562Z,5.17
2017-11-12T06:45:40.750Z,5.09
2017-11-12T06:46:41.600Z,5.20
2017-11-12T06:47:40.794Z,5.12
2017-11-12T06:48:42.480Z,5.17
2017-11-12T06:49:40.605Z,5.17
2017-11-12T06:50:41.539Z,5.12
2017-11-12T06:51:43.550Z,5.15
2017-11-12T06:52:40.550Z,5.12
2017-11-12T06:53:42.096Z,5.18
2017-11-12T06:54:40.961Z,5.20
2017-11-12T06:55:40.504Z,5.12
2017-11-12T06:56:40.509Z,5.15
2017-11-12T06:57:41.970Z,5.18
2017-11-12T06:58:40.372Z,5.15
2017-11-12T06:59:42.256Z,5.17
2017-11-12T07:00:40.475Z,5.15
2017-11-12T07:01:40.490Z,5.13
2017-11-12T07:02:40.399Z,5.22
2017-11-12T07:03:40.367Z,5.15
2017-11-12T07:04:40.392Z,5.21
2017-11-12T07:05:40.429Z,5.18
2017-11-12T07:06:40.428Z,5.22
2017-11-12T07:07:40.284Z,5.17
2017-11-12T07:08:40.239Z,5.24
2017-11-12T07:09:40.219Z,5.20
2017-11-12T07:10:40.345Z,5.24
2017-11-12T07:11:40.279Z,5.22
2017-11-12T07:12:42.000Z,5.25
2017-11-12T07:13:40.206Z,5.24
2017-11-12T07:14:40.278Z,5.27
2017-11-12T07:15:40.149Z,5.25
2017-11-12T07:16:40.208Z,5.24
2017-11-12T07:17:40.142Z,5.31
2017-11-12T07:18:40.068Z,5.25
2017-11-12T07:19:40.083Z,5.21
2017-11-12T07:20:40.055Z,5.27
2017-11-12T07:21:40.044Z,5.17
2017-11-12T07:22:40.118Z,5.22
2017-11-12T07:23:40.004Z,5.21
2017-11-12T07:24:39.977Z,5.28
2017-11-12T07:25:39.975Z,5.22
2017-11-12T07:26:39.935Z,5.35
2017-11-12T07:27:39.958Z,5.24
2017-11-12T07:28:40.990Z,5.20
2017-11-12T07:29:40.022Z,5.21
2017-11-12T07:30:39.905Z,5.21
2017-11-12T07:31:39.855Z,5.20
2017-11-12T07:32:39.883Z,5.28
2017-11-12T07:33:41.558Z,5.38
2017-11-12T07:34:39.765Z,5.33
2017-11-12T07:35:40.496Z,5.33
2017-11-12T07:36:39.871Z,5.25
2017-11-12T07:37:39.908Z,5.24
2017-11-12T07:38:39.811Z,5.36
2017-11-12T07:39:40.588Z,5.25
2017-11-12T07:40:39.672Z,5.28
2017-11-12T07:41:39.762Z,5.28
2017-11-12T07:43:02.815Z,5.36
2017-11-12T07:43:39.701Z,5.27
2017-11-12T07:44:40.664Z,5.30
2017-11-12T07:45:39.704Z,5.30
2017-11-12T07:46:39.697Z,5.39
2017-11-12T07:47:39.624Z,5.39
2017-11-12T07:48:39.607Z,5.36
2017-11-12T07:49:40.526Z,5.38
2017-11-12T07:50:40.196Z,5.43
2017-11-12T07:51:40.959Z,5.38
2017-11-12T07:52:40.079Z,5.45
2017-11-12T07:53:46.227Z,5.40
2017-11-12T07:54:39.531Z,5.42
2017-11-12T07:55:40.146Z,5.42
2017-11-12T07:56:39.629Z,5.40
2017-11-12T07:57:40.106Z,5.43
2017-11-12T07:58:40.126Z,5.49
2017-11-12T07:59:39.543Z,5.56
2017-11-12T08:00:39.319Z,5.45
2017-11-12T08:01:39.342Z,5.49
2017-11-12T08:02:39.424Z,5.51
2017-11-12T08:03:39.568Z,5.56
2017-11-12T08:04:39.490Z,5.57
2017-11-12T08:05:39.970Z,5.58
2017-11-12T08:06:39.236Z,5.60
2017-11-12T08:07:39.283Z,5.57
2017-11-12T08:08:39.323Z,5.63
2017-11-12T08:09:39.114Z,5.61
2017-11-12T08:10:39.093Z,5.63
2017-11-12T08:11:40.172Z,5.63
2017-11-12T08:12:42.086Z,5.58
2017-11-12T08:13:39.145Z,5.60
2017-11-12T08:14:40.061Z,5.71
2017-11-12T08:15:39.569Z,5.64
2017-11-12T08:16:39.168Z,5.67
2017-11-12T08:17:39.067Z,5.57
2017-11-12T08:18:40.125Z,5.56
2017-11-12T08:19:39.051Z,5.53
2017-11-12T08:20:39.018Z,5.53
2017-11-12T08:21:39.504Z,5.57
2017-11-12T08:22:38.886Z,5.53
2017-11-12T08:23:39.191Z,5.46
2017-11-12T08:24:38.967Z,5.42
2017-11-12T08:25:39.032Z,5.51
2017-11-12T08:26:38.997Z,5.49
2017-11-12T08:27:38.929Z,5.46
2017-11-12T08:28:39.552Z,5.54
2017-11-12T08:29:38.750Z,5.51
2017-11-12T08:30:38.718Z,5.46
2017-11-12T08:31:38.963Z,5.43
2017-11-12T08:32:38.684Z,5.53
2017-11-12T08:33:38.675Z,5.45
2017-11-12T08:34:38.717Z,5.43
2017-11-12T08:35:38.666Z,5.48
2017-11-12T08:36:38.652Z,5.42
2017-11-12T08:37:38.983Z,5.43
2017-11-12T08:38:38.632Z,5.48
2017-11-12T08:39:38.566Z,5.43
2017-11-12T08:40:38.561Z,5.39
2017-11-12T08:41:38.563Z,5.39
2017-11-12T08:42:38.517Z,5.38
2017-11-12T08:43:38.777Z,5.39
2017-11-12T08:44:38.476Z,5.43
2017-11-12T08:45:38.455Z,5.35
2017-11-12T08:46:38.435Z,5.43
2017-11-12T08:47:38.428Z,5.35
2017-11-12T08:48:38.420Z,5.38
2017-11-12T08:49:38.808Z,5.39
2017-11-12T08:50:38.369Z,5.36
2017-11-12T08:51:38.416Z,5.31
2017-11-12T08:52:38.338Z,5.30
2017-11-12T08:53:38.314Z,5.27
2017-11-12T08:54:38.300Z,5.27
2017-11-12T08:55:38.361Z,5.36
2017-11-12T08:56:38.276Z,5.38
2017-11-12T08:57:38.257Z,5.42
2017-11-12T08:58:38.233Z,5.38
2017-11-12T08:59:38.215Z,5.24
2017-11-12T09:00:38.203Z,5.33
2017-11-12T09:01:38.262Z,5.22
2017-11-12T09:02:38.184Z,5.33
2017-11-12T09:03:38.144Z,5.36
2017-11-12T09:04:38.127Z,5.30
2017-11-12T09:05:38.104Z,5.31
2017-11-12T09:06:38.082Z,5.33
2017-11-12T09:07:38.210Z,5.30
2017-11-12T09:08:38.097Z,5.33
2017-11-12T09:09:38.035Z,5.27
2017-11-12T09:10:38.032Z,5.36
2017-11-12T09:11:38.005Z,5.40
2017-11-12T09:12:37.977Z,5.38
2017-11-12T09:13:38.335Z,5.39
2017-11-12T09:14:37.939Z,5.35
2017-11-12T09:15:37.925Z,5.30
2017-11-12T09:16:37.914Z,5.35
2017-11-12T09:17:37.881Z,5.39
2017-11-12T09:18:37.880Z,5.39
2017-11-12T09:19:37.908Z,5.35
2017-11-12T09:20:37.840Z,5.31
2017-11-12T09:21:37.816Z,5.30
2017-11-12T09:22:37.804Z,5.40
2017-11-12T09:23:37.783Z,5.38
2017-11-12T09:24:37.766Z,5.39
2017-11-12T09:25:37.891Z,5.42
2017-11-12T09:26:37.744Z,5.39
2017-11-12T09:27:37.719Z,5.42
2017-11-12T09:28:37.693Z,5.39
2017-11-12T09:29:37.673Z,5.38
2017-11-12T09:30:37.658Z,5.38
2017-11-12T09:31:37.997Z,5.43
2017-11-12T09:32:37.626Z,5.42
2017-11-12T09:33:37.604Z,5.45
2017-11-12T09:34:37.599Z,5.51
2017-11-12T09:35:37.565Z,5.48
2017-11-12T09:36:37.553Z,5.48
2017-11-12T09:37:37.681Z,5.56
2017-11-12T09:38:37.522Z,5.60
2017-11-12T09:39:37.494Z,5.61
2017-11-12T09:40:37.478Z,5.67
2017-11-12T09:41:37.467Z,5.57
2017-11-12T09:42:37.443Z,5.64
2017-11-12T09:43:37.498Z,5.76
2017-11-12T09:44:37.431Z,5.82
2017-11-12T09:45:37.392Z,5.81
2017-11-12T09:46:37.366Z,5.71
2017-11-12T09:47:37.366Z,5.74
2017-11-12T09:48:37.335Z,5.79
2017-11-12T09:49:37.383Z,5.79
2017-11-12T09:50:37.303Z,5.89
2017-11-12T09:51:37.285Z,5.89
2017-11-12T09:52:37.270Z,5.90
2017-11-12T09:53:37.252Z,5.97
2017-11-12T09:54:37.256Z,5.93
2017-11-12T09:55:37.283Z,5.89
2017-11-12T09:56:37.464Z,5.85
2017-11-12T09:57:37.183Z,5.89
2017-11-12T09:58:37.174Z,5.97
2017-11-12T09:59:37.154Z,5.93
2017-11-12T10:00:37.162Z,5.97
2017-11-12T10:17:00.585Z,5.67
2017-11-12T10:18:00.719Z,5.76
2017-11-12T10:19:00.560Z,5.67
2017-11-12T10:20:00.248Z,5.79
2017-11-12T10:21:00.037Z,5.86
2017-11-12T10:22:00.722Z,5.78
2017-11-12T10:23:00.734Z,5.89
2017-11-12T10:23:59.895Z,5.93
2017-11-12T10:24:59.965Z,5.89
2017-11-12T10:25:59.845Z,5.93
2017-11-12T10:26:59.845Z,5.90
2017-11-12T10:27:59.797Z,5.86
2017-11-12T10:28:59.851Z,6.01
2017-11-12T10:30:01.622Z,5.99
2017-11-12T10:30:59.766Z,5.97
2017-11-12T10:32:00.473Z,5.99
2017-11-12T10:33:05.268Z,6.09
2017-11-12T10:55:56.523Z,5.68
2017-11-12T10:56:45.606Z,5.72
2017-11-12T10:57:46.031Z,5.68
2017-11-12T10:58:45.519Z,5.64
2017-11-12T10:59:45.506Z,5.76
2017-11-12T11:00:45.833Z,5.72
2017-11-12T11:01:48.521Z,5.65
2017-11-12T11:02:45.612Z,5.65
2017-11-12T11:03:47.650Z,5.68
2017-11-12T11:04:45.752Z,5.79
2017-11-12T11:13:15.046Z,5.71
2017-11-12T11:14:14.404Z,5.75
2017-11-12T11:15:15.241Z,5.75
2017-11-12T11:16:14.495Z,5.67
2017-11-12T11:17:14.284Z,5.67
2017-11-12T11:18:14.274Z,5.71
2017-11-12T11:19:14.279Z,5.75
2017-11-12T11:20:14.310Z,5.67
2017-11-12T11:21:14.220Z,5.64
2017-11-12T11:22:14.212Z,5.74
2017-11-12T11:23:19.953Z,5.64
2017-11-12T11:24:14.154Z,5.74
2017-11-12T11:25:14.139Z,5.71
2017-11-12T11:26:14.133Z,5.72
2017-11-12T11:39:44.889Z,5.68
2017-11-12T11:40:45.526Z,5.65
2017-11-12T11:41:44.778Z,5.64
2017-11-12T11:42:44.687Z,5.64
2017-11-12T11:43:44.784Z,5.67
2017-11-12T11:44:44.668Z,5.56
2017-11-12T11:45:45.351Z,5.67
2017-11-12T11:46:44.611Z,5.60
2017-11-12T11:47:44.581Z,5.61
2017-11-12T11:49:00.899Z,5.57
2017-11-12T11:49:44.639Z,5.57
2017-11-12T11:50:44.520Z,5.63
2017-11-12T11:51:44.860Z,5.63
2017-11-12T11:55:04.063Z,5.65
2017-11-12T11:55:49.562Z,5.68
2017-11-12T11:58:35.065Z,5.64
2017-11-12T11:59:34.469Z,5.63
2017-11-12T12:00:34.442Z,5.65
2017-11-12T12:01:35.263Z,5.63
2017-11-12T12:02:35.201Z,5.74
2017-11-12T12:12:45.553Z,5.60
2017-11-12T12:16:07.985Z,5.60
2017-11-12T12:17:07.936Z,5.60
2017-11-12T12:18:07.869Z,5.60
2017-11-12T12:19:07.691Z,5.54
2017-11-12T12:20:07.675Z,5.56
2017-11-12T12:21:07.643Z,5.58
2017-11-12T12:22:07.630Z,5.58
2017-11-12T12:23:07.602Z,5.60
2017-11-12T12:24:07.650Z,5.56
2017-11-12T12:25:07.581Z,5.63
2017-11-12T12:26:07.554Z,5.60
2017-11-12T12:27:07.533Z,5.63
2017-11-12T12:28:07.519Z,5.68
2017-11-12T12:29:07.500Z,5.74
2017-11-12T13:12:24.690Z,5.63
2017-11-12T13:42:03.342Z,5.35
2017-11-12T13:42:31.377Z,5.35
2017-11-12T13:43:32.030Z,5.42
2017-11-12T13:44:31.331Z,5.36
2017-11-12T13:45:31.313Z,5.43
2017-11-12T13:46:31.319Z,5.40
2017-11-12T13:47:31.433Z,5.35
2017-11-12T13:48:31.271Z,5.40
2017-11-12T13:49:31.328Z,5.39
2017-11-12T13:50:31.170Z,5.46
2017-11-12T13:51:31.165Z,5.45
2017-11-12T13:52:31.335Z,5.49
2017-11-12T13:53:31.677Z,5.42
2017-11-12T13:54:31.109Z,5.43
2017-11-12T13:55:33.040Z,5.51
2017-11-12T13:56:31.147Z,5.49
2017-11-12T13:57:31.132Z,5.40
2017-11-12T13:58:31.130Z,5.42
2017-11-12T13:59:31.158Z,5.49
2017-11-12T14:00:31.041Z,5.42
2017-11-12T14:01:30.994Z,5.51
2017-11-12T14:02:31.131Z,5.45
2017-11-12T14:03:30.938Z,5.56
2017-11-12T14:04:31.020Z,5.51
2017-11-12T14:05:31.172Z,5.57
2017-11-12T14:06:30.962Z,5.57
2017-11-12T14:07:30.933Z,5.61
2017-11-12T14:08:31.049Z,5.63
2017-11-12T14:09:31.017Z,5.60
2017-11-12T14:10:32.957Z,5.63
2017-11-12T14:11:30.982Z,5.65
2017-11-12T14:12:30.786Z,5.68
2017-11-12T14:13:30.772Z,5.67
2017-11-12T14:14:30.905Z,5.63
2017-11-12T14:15:30.729Z,5.67
2017-11-12T14:16:30.715Z,5.74
2017-11-12T14:17:30.764Z,5.64
2017-11-12T14:18:30.695Z,5.68
2017-11-12T14:19:30.657Z,5.64
2017-11-12T14:20:31.083Z,5.72
2017-11-12T14:21:30.630Z,5.74
2017-11-12T14:22:30.630Z,5.68
2017-11-12T14:23:30.639Z,5.74
2017-11-12T14:24:30.576Z,5.75
2017-11-12T14:25:31.052Z,5.71
2017-11-12T14:26:30.668Z,5.67
2017-11-12T14:27:30.579Z,5.75
2017-11-12T14:28:30.499Z,5.74
2017-11-12T14:29:30.769Z,5.76
2017-11-12T14:30:30.457Z,5.75
2017-11-12T14:31:30.442Z,5.75
2017-11-12T14:32:30.583Z,5.79
2017-11-12T14:33:30.446Z,5.85
2017-11-12T14:34:30.410Z,5.82
2017-11-12T14:35:30.377Z,5.67
2017-11-12T14:36:30.378Z,5.71
2017-11-12T14:37:30.338Z,5.78
2017-11-12T14:38:30.492Z,5.89
2017-11-12T14:39:30.316Z,5.90
2017-11-12T14:40:32.069Z,5.91
2017-11-12T14:41:30.282Z,5.89
2017-11-12T14:42:30.444Z,5.90
2017-11-12T14:43:30.235Z,5.90
2017-11-12T14:44:30.360Z,5.90
2017-11-12T14:45:30.251Z,5.93
2017-11-12T14:46:30.184Z,6.00
2017-11-12T14:47:30.202Z,5.99
2017-11-12T14:48:30.173Z,6.00
2017-11-12T14:49:30.153Z,6.01
2017-11-12T14:50:30.571Z,6.04
2017-11-12T14:51:30.103Z,6.04
2017-11-12T14:52:30.082Z,6.11
2017-11-12T14:53:30.067Z,6.12
2017-11-12T14:54:30.048Z,6.04
2017-11-12T14:55:30.048Z,6.06
2017-11-12T14:56:31.022Z,6.18
2017-11-12T14:57:29.995Z,6.11
2017-11-12T14:58:30.006Z,6.11
2017-11-12T14:59:29.991Z,6.18
2017-11-12T15:00:30.097Z,6.11
2017-11-12T15:01:29.968Z,6.14
2017-11-12T15:02:30.012Z,6.14
2017-11-12T15:03:29.912Z,6.15
2017-11-12T15:04:29.888Z,6.19
2017-11-12T15:05:29.861Z,6.09
2017-11-12T15:06:29.902Z,6.14
2017-11-12T15:07:29.823Z,6.14
2017-11-12T15:08:30.105Z,6.09
2017-11-12T15:09:29.801Z,6.15
2017-11-12T15:10:29.787Z,6.11
2017-11-12T15:11:29.756Z,6.17
2017-11-12T15:12:30.063Z,6.17
2017-11-12T15:13:29.732Z,6.11
2017-11-12T15:14:29.755Z,6.17
2017-11-12T15:15:29.682Z,6.11
2017-11-12T15:16:29.665Z,6.15
2017-11-12T15:17:29.670Z,6.14
2017-11-12T15:18:29.638Z,6.08
2017-11-12T15:19:29.609Z,6.11
2017-11-12T15:20:29.679Z,6.09
2017-11-12T15:21:29.579Z,6.11
2017-11-12T15:22:29.583Z,6.12
2017-11-12T15:23:29.546Z,6.04
2017-11-12T15:24:29.524Z,6.12
2017-11-12T15:25:29.512Z,6.06
2017-11-12T15:26:29.554Z,6.11
2017-11-12T15:27:29.473Z,6.08
2017-11-12T15:28:29.462Z,6.14
2017-11-12T15:29:29.437Z,6.15
2017-11-12T15:30:29.418Z,6.18
2017-11-12T15:31:29.411Z,6.15
2017-11-12T15:32:29.463Z,6.11
2017-11-12T15:33:29.369Z,6.04
2017-11-12T15:34:29.347Z,6.15
2017-11-12T15:35:29.354Z,6.17
2017-11-12T15:36:29.335Z,6.04
2017-11-12T15:37:29.309Z,6.04
2017-11-12T15:38:29.414Z,6.08
2017-11-12T15:39:29.267Z,6.11
2017-11-12T15:40:29.265Z,6.11
2017-11-12T15:41:29.248Z,6.00